createdAt,value
2018-03-17T00:00:12.606Z,25.23
2018-03-17T00:02:39.076Z,21.60
2018-03-17T00:05:06.089Z,23.33
2018-03-17T00:07:41.548Z,24.73
2018-03-17T00:10:07.921Z,24.47
2018-03-17T00:12:34.435Z,23.13
2018-03-17T00:15:00.833Z,21.77
2018-03-17T00:17:34.866Z,21.53
2018-03-17T00:20:01.113Z,23.00
2018-03-17T00:22:27.380Z,21.57
2018-03-17T00:24:53.659Z,21.30
2018-03-17T00:27:19.913Z,22.87
2018-03-17T00:29:53.453Z,21.70
2018-03-17T00:32:19.795Z,21.07
2018-03-17T00:34:46.084Z,20.13
2018-03-17T00:37:12.453Z,20.77
2018-03-17T00:39:39.598Z,22.33
2018-03-17T00:42:05.911Z,20.30
2018-03-17T00:44:32.328Z,20.10
2018-03-17T00:46:58.623Z,23.97
2018-03-17T00:49:24.943Z,21.03
2018-03-17T00:51:57.855Z,19.63
2018-03-17T00:54:26.547Z,18.03
2018-03-17T00:56:53.442Z,20.27
2018-03-17T00:59:20.450Z,20.63
2018-03-17T01:01:46.750Z,21.60
2018-03-17T01:04:13.850Z,23.33
2018-03-17T01:06:40.207Z,20.27
2018-03-17T01:09:06.512Z,21.40
2018-03-17T01:11:32.868Z,21.10
2018-03-17T01:13:59.178Z,21.00
2018-03-17T01:16:31.389Z,23.97
2018-03-17T01:18:57.695Z,22.07
2018-03-17T01:21:25.005Z,18.73
2018-03-17T01:23:51.340Z,19.60
2018-03-17T01:26:23.646Z,17.67
2018-03-17T01:29:00.219Z,22.10
2018-03-17T01:31:26.488Z,18.33
2018-03-17T01:33:52.793Z,19.20
2018-03-17T01:36:19.100Z,19.53
2018-03-17T01:38:53.010Z,20.03
2018-03-17T01:41:19.274Z,18.03
2018-03-17T01:43:46.322Z,17.20
2018-03-17T01:46:12.589Z,16.63
2018-03-17T01:48:38.838Z,17.03
2018-03-17T01:51:05.146Z,17.50
2018-03-17T01:53:31.418Z,13.80
2018-03-17T01:55:57.720Z,16.43
2018-03-17T01:58:24.320Z,18.83
2018-03-17T02:00:55.014Z,20.30
2018-03-17T02:03:21.316Z,19.07
2018-03-17T02:05:59.548Z,17.57
2018-03-17T02:08:25.998Z,19.33
2018-03-17T02:10:52.274Z,17.23
2018-03-17T02:13:18.589Z,18.80
2018-03-17T02:15:44.840Z,18.63
2018-03-17T02:18:11.090Z,15.53
2018-03-17T02:20:37.390Z,16.97
2018-03-17T02:23:03.626Z,15.20
2018-03-17T02:25:33.424Z,16.07
2018-03-17T02:28:06.803Z,15.50
2018-03-17T02:30:33.078Z,16.03
2018-03-17T02:33:00.075Z,15.87
2018-03-17T02:35:26.405Z,16.97
2018-03-17T02:37:52.717Z,15.67
2018-03-17T02:40:19.772Z,14.07
2018-03-17T02:42:48.780Z,15.07
2018-03-17T02:45:15.026Z,14.90
2018-03-17T02:47:42.026Z,13.37
2018-03-17T02:50:08.309Z,14.30
2018-03-17T02:52:34.610Z,15.13
2018-03-17T02:55:00.847Z,16.00
2018-03-17T02:57:27.156Z,16.57
2018-03-17T02:59:54.152Z,14.73
2018-03-17T03:02:20.658Z,15.80
2018-03-17T03:04:47.849Z,13.60
2018-03-17T03:07:14.152Z,16.37
2018-03-17T03:09:40.427Z,12.23
2018-03-17T03:12:13.650Z,13.83
2018-03-17T03:14:39.918Z,11.70
2018-03-17T03:17:06.231Z,8.23
2018-03-17T03:19:32.619Z,12.20
2018-03-17T03:21:59.642Z,13.60
2018-03-17T03:24:26.179Z,13.73
2018-03-17T03:26:52.741Z,13.20
2018-03-17T03:29:19.014Z,13.73
2018-03-17T03:31:45.274Z,12.77
2018-03-17T03:34:12.294Z,13.23
2018-03-17T03:36:38.595Z,12.80
2018-03-17T03:39:11.774Z,12.37
2018-03-17T03:41:39.379Z,12.90
2018-03-17T03:44:05.659Z,15.30
2018-03-17T03:46:32.133Z,11.50
2018-03-17T03:48:58.408Z,12.63
2018-03-17T03:51:25.440Z,13.63
2018-03-17T03:53:52.690Z,11.63
2018-03-17T03:56:18.946Z,13.90
2018-03-17T03:58:45.230Z,12.97
2018-03-17T04:01:11.508Z,12.07
2018-03-17T04:03:37.805Z,13.30
2018-03-17T04:06:14.368Z,15.97
2018-03-17T04:08:41.398Z,12.67
2018-03-17T04:11:07.641Z,14.03
2018-03-17T04:13:33.868Z,14.03
2018-03-17T04:16:04.353Z,13.87
2018-03-17T04:18:30.599Z,14.97
2018-03-17T04:20:57.631Z,14.90
2018-03-17T04:23:23.931Z,13.07
2018-03-17T04:25:50.133Z,15.47
2018-03-17T04:28:17.128Z,13.70
2018-03-17T04:30:43.375Z,14.93
2018-03-17T04:33:09.660Z,14.37
2018-03-17T04:35:35.916Z,12.53
2018-03-17T04:38:03.134Z,14.30
2018-03-17T04:40:29.412Z,15.93
2018-03-17T04:42:55.906Z,13.17
2018-03-17T04:45:26.952Z,13.73
2018-03-17T04:47:53.232Z,13.30
2018-03-17T04:50:19.517Z,14.17
2018-03-17T04:52:46.512Z,12.70
2018-03-17T04:55:12.791Z,12.43
2018-03-17T04:57:53.728Z,11.43
2018-03-17T05:00:19.985Z,11.17
2018-03-17T05:02:46.250Z,11.80
2018-03-17T05:05:12.514Z,13.67
2018-03-17T05:07:39.545Z,13.07
2018-03-17T05:10:06.696Z,13.60
2018-03-17T05:12:33.163Z,13.97
2018-03-17T05:15:19.641Z,11.60
2018-03-17T05:17:45.905Z,13.20
2018-03-17T05:20:12.335Z,13.17
2018-03-17T05:22:38.553Z,12.90
2018-03-17T05:25:04.858Z,14.07
2018-03-17T05:27:31.116Z,10.97
2018-03-17T05:29:58.140Z,10.97
2018-03-17T05:32:26.560Z,11.93
2018-03-17T05:34:52.992Z,12.70
2018-03-17T05:37:19.278Z,13.27
2018-03-17T05:39:45.576Z,14.13
2018-03-17T05:42:11.854Z,12.20
2018-03-17T05:44:38.120Z,12.97
2018-03-17T05:47:04.366Z,13.83
2018-03-17T05:49:30.788Z,13.40
2018-03-17T05:51:57.834Z,12.97
2018-03-17T05:54:38.095Z,12.17
2018-03-17T05:57:04.374Z,13.20
2018-03-17T05:59:30.616Z,13.53
2018-03-17T06:01:56.914Z,13.63
2018-03-17T06:04:23.226Z,13.80
2018-03-17T06:06:49.543Z,13.33
2018-03-17T06:09:15.788Z,12.80
2018-03-17T06:11:42.096Z,12.93
2018-03-17T06:14:09.223Z,13.37
2018-03-17T06:16:35.480Z,12.60
2018-03-17T06:19:01.803Z,14.67
2018-03-17T06:21:28.245Z,13.10
2018-03-17T06:23:54.513Z,11.07
2018-03-17T06:26:26.367Z,13.40
2018-03-17T06:28:52.666Z,11.50
2018-03-17T06:31:18.954Z,14.67
2018-03-17T06:33:45.166Z,10.20
2018-03-17T06:36:11.432Z,11.60
2018-03-17T06:38:37.726Z,11.77
2018-03-17T06:41:04.017Z,13.00
2018-03-17T06:43:30.280Z,10.67
2018-03-17T06:45:57.670Z,11.23
2018-03-17T06:48:24.706Z,13.20
2018-03-17T06:50:51.057Z,8.57
2018-03-17T06:53:17.754Z,9.30
2018-03-17T06:55:44.017Z,10.17
2018-03-17T06:58:10.368Z,12.00
2018-03-17T07:00:36.705Z,11.07
2018-03-17T07:03:02.958Z,9.73
2018-03-17T07:05:29.234Z,10.17
2018-03-17T07:07:56.603Z,8.97
2018-03-17T07:10:22.971Z,10.17
2018-03-17T07:12:49.251Z,10.23
2018-03-17T07:15:15.530Z,10.07
2018-03-17T07:17:42.535Z,9.53
2018-03-17T07:20:08.833Z,10.03
2018-03-17T07:22:35.874Z,10.63
2018-03-17T07:25:02.857Z,10.33
2018-03-17T07:27:29.976Z,9.87
2018-03-17T07:29:57.014Z,10.77
2018-03-17T07:32:23.351Z,11.33
2018-03-17T07:34:49.678Z,11.93
2018-03-17T07:37:15.983Z,12.23
2018-03-17T07:39:42.322Z,9.47
2018-03-17T07:42:08.734Z,10.23
2018-03-17T07:44:38.734Z,12.60
2018-03-17T07:47:05.809Z,10.87
2018-03-17T07:49:32.131Z,10.07
2018-03-17T07:52:00.226Z,8.70
2018-03-17T07:54:26.720Z,11.43
2018-03-17T07:56:53.069Z,10.67
2018-03-17T07:59:19.406Z,9.77
2018-03-17T08:02:03.739Z,9.80
2018-03-17T08:04:30.087Z,11.83
2018-03-17T08:06:56.561Z,11.27
2018-03-17T08:09:22.881Z,9.83
2018-03-17T08:11:52.756Z,11.17
2018-03-17T08:14:19.291Z,9.67
2018-03-17T08:16:47.684Z,9.47
2018-03-17T08:19:14.151Z,9.50
2018-03-17T08:21:41.369Z,11.00
2018-03-17T08:24:10.039Z,11.50
2018-03-17T08:26:36.528Z,10.63
2018-03-17T08:29:02.894Z,10.63
2018-03-17T08:31:30.071Z,9.40
2018-03-17T08:33:59.294Z,9.27
2018-03-17T08:36:25.614Z,10.33
2018-03-17T08:38:51.943Z,9.47
2018-03-17T08:41:29.820Z,10.27
2018-03-17T08:43:56.182Z,11.07
2018-03-17T08:46:24.739Z,10.50
2018-03-17T08:48:51.086Z,9.00
2018-03-17T08:51:17.618Z,10.27
2018-03-17T08:53:44.361Z,13.03
2018-03-17T08:56:16.322Z,9.90
2018-03-17T08:58:42.777Z,9.53
2018-03-17T09:01:09.279Z,9.20
2018-03-17T09:03:35.796Z,11.90
2018-03-17T09:06:03.028Z,8.43
2018-03-17T09:08:30.151Z,11.40
2018-03-17T09:11:02.370Z,8.73
2018-03-17T09:13:28.712Z,9.20
2018-03-17T09:15:55.273Z,8.77
2018-03-17T09:18:21.611Z,9.07
2018-03-17T09:20:47.996Z,8.10
2018-03-17T09:23:14.389Z,8.70
2018-03-17T09:25:40.942Z,9.10
2018-03-17T09:28:07.353Z,9.00
2018-03-17T09:30:33.663Z,10.70
2018-03-17T09:33:00.071Z,9.00
2018-03-17T09:35:26.552Z,9.30
2018-03-17T09:37:53.637Z,8.80
2018-03-17T09:40:19.939Z,11.23
2018-03-17T09:42:51.888Z,8.70
2018-03-17T09:45:18.267Z,8.77
2018-03-17T09:47:45.391Z,8.87
2018-03-17T09:50:11.783Z,10.53
2018-03-17T09:52:38.168Z,11.30
2018-03-17T09:55:05.278Z,11.53
2018-03-17T09:57:32.525Z,9.43
2018-03-17T09:59:58.895Z,9.17
2018-03-17T10:02:25.992Z,11.43
2018-03-17T10:04:52.381Z,10.27
2018-03-17T10:07:18.721Z,8.83
2018-03-17T10:09:45.197Z,10.67
2018-03-17T10:12:12.439Z,10.30
2018-03-17T10:14:39.574Z,9.23
2018-03-17T10:17:11.590Z,10.07
2018-03-17T10:19:38.009Z,10.13
2018-03-17T10:22:04.523Z,8.40
2018-03-17T10:24:30.990Z,10.77
2018-03-17T10:27:03.573Z,8.37
2018-03-17T10:29:30.000Z,11.00
2018-03-17T10:31:56.552Z,10.77
2018-03-17T10:34:22.995Z,10.10
2018-03-17T10:36:49.551Z,10.00
2018-03-17T10:39:23.230Z,9.67
2018-03-17T10:41:49.541Z,9.40
2018-03-17T10:44:15.909Z,11.00
2018-03-17T10:46:43.075Z,9.00
2018-03-17T10:49:09.680Z,12.83
2018-03-17T10:51:36.508Z,10.30
2018-03-17T10:54:02.925Z,9.27
2018-03-17T10:56:30.056Z,6.87
2018-03-17T10:58:56.435Z,13.00
2018-03-17T11:01:24.725Z,11.97
2018-03-17T11:03:52.249Z,10.70
2018-03-17T11:06:18.841Z,10.40
2018-03-17T11:08:46.029Z,12.13
2018-03-17T11:11:13.338Z,10.50
2018-03-17T11:13:44.361Z,12.67
2018-03-17T11:16:13.968Z,10.90
2018-03-17T11:18:41.309Z,10.70
2018-03-17T11:21:08.479Z,10.00
2018-03-17T11:23:34.821Z,11.00
2018-03-17T11:26:01.225Z,11.07
2018-03-17T11:28:29.625Z,10.23
2018-03-17T11:30:55.906Z,9.67
2018-03-17T11:33:23.061Z,11.43
2018-03-17T11:35:49.449Z,10.80
2018-03-17T11:38:15.818Z,9.30
2018-03-17T11:40:49.858Z,11.87
2018-03-17T11:43:16.259Z,9.30
2018-03-17T11:45:42.649Z,10.73
2018-03-17T11:48:09.493Z,10.63
2018-03-17T11:50:36.850Z,10.47
2018-03-17T11:53:03.199Z,8.87
2018-03-17T11:55:29.571Z,10.03
2018-03-17T11:57:57.426Z,10.33
2018-03-17T12:00:24.032Z,10.60
2018-03-17T12:02:50.462Z,9.53
2018-03-17T12:05:17.513Z,10.20
2018-03-17T12:07:44.596Z,7.60
2018-03-17T12:10:11.131Z,11.20
2018-03-17T12:12:38.305Z,10.07
2018-03-17T12:15:05.603Z,9.57
2018-03-17T12:17:32.019Z,10.60
2018-03-17T12:19:58.393Z,11.20
2018-03-17T12:22:30.290Z,7.87
2018-03-17T12:24:57.744Z,10.13
2018-03-17T12:27:24.091Z,7.37
2018-03-17T12:29:50.538Z,9.73
2018-03-17T12:32:16.894Z,11.33
2018-03-17T12:34:43.290Z,9.67
2018-03-17T12:37:10.648Z,11.13
2018-03-17T12:39:37.124Z,9.30
2018-03-17T12:42:03.515Z,9.53
2018-03-17T12:44:30.691Z,11.97
2018-03-17T12:46:58.569Z,10.70
2018-03-17T12:49:40.558Z,11.60
2018-03-17T12:52:07.572Z,8.77
2018-03-17T12:54:33.890Z,10.70
2018-03-17T12:57:00.263Z,11.73
2018-03-17T12:59:27.293Z,12.67
2018-03-17T13:01:54.458Z,10.07
2018-03-17T13:04:21.533Z,11.47
2018-03-17T13:06:47.967Z,10.23
2018-03-17T13:09:15.147Z,9.00
2018-03-17T13:11:41.562Z,11.33
2018-03-17T13:14:09.557Z,7.60
2018-03-17T13:16:35.918Z,11.03
2018-03-17T13:19:02.244Z,11.23
2018-03-17T13:21:29.349Z,11.23
2018-03-17T13:23:55.834Z,10.17
2018-03-17T13:26:22.216Z,8.87
2018-03-17T13:28:48.751Z,10.37
2018-03-17T13:31:15.198Z,7.87
2018-03-17T13:33:41.599Z,12.33
2018-03-17T13:36:22.544Z,11.47
2018-03-17T13:38:48.890Z,11.87
2018-03-17T13:41:15.294Z,10.97
2018-03-17T13:43:41.768Z,11.60
2018-03-17T13:46:16.758Z,12.93
2018-03-17T13:48:43.134Z,11.13
2018-03-17T13:51:09.781Z,8.73
2018-03-17T13:53:38.274Z,11.03
2018-03-17T13:56:06.014Z,10.27
2018-03-17T13:58:32.341Z,10.50
2018-03-17T14:00:58.707Z,10.77
2018-03-17T14:03:25.628Z,7.93
2018-03-17T14:05:54.007Z,10.13
2018-03-17T14:08:21.088Z,10.83
2018-03-17T14:13:33.450Z,10.73
2018-03-17T14:15:59.887Z,15.27
2018-03-17T14:18:26.219Z,10.60
2018-03-17T14:20:52.945Z,13.33
2018-03-17T14:23:20.184Z,13.80
2018-03-17T14:25:46.521Z,11.63
2018-03-17T14:28:12.918Z,12.63
2018-03-17T14:30:39.526Z,11.33
2018-03-17T14:33:05.872Z,10.13
2018-03-17T14:35:35.644Z,11.57
2018-03-17T14:38:02.211Z,9.73
2018-03-17T14:40:29.684Z,10.67
2018-03-17T14:42:56.022Z,11.73
2018-03-17T14:45:22.500Z,14.20
2018-03-17T14:47:48.865Z,10.87
2018-03-17T14:50:15.482Z,14.07
2018-03-17T14:52:43.631Z,12.73
2018-03-17T14:55:10.371Z,12.93
2018-03-17T14:57:36.870Z,11.00
2018-03-17T15:00:05.508Z,10.70
2018-03-17T15:02:41.080Z,12.43
2018-03-17T15:05:07.492Z,14.23
2018-03-17T15:07:33.954Z,11.90
2018-03-17T15:10:01.110Z,11.97
2018-03-17T15:12:28.265Z,12.00
2018-03-17T15:14:54.876Z,11.63
2018-03-17T15:17:22.316Z,12.27
2018-03-17T15:19:48.762Z,12.43
2018-03-17T15:22:15.295Z,11.87
2018-03-17T15:24:43.623Z,11.67
2018-03-17T15:27:11.360Z,13.07
2018-03-17T15:29:37.726Z,10.67
2018-03-17T15:32:04.096Z,15.27
2018-03-17T15:34:30.434Z,11.50
2018-03-17T15:36:56.866Z,11.60
2018-03-17T15:39:23.254Z,11.53
2018-03-17T15:41:49.627Z,13.33
2018-03-17T15:44:15.946Z,13.80
2018-03-17T15:46:42.495Z,14.67
2018-03-17T15:49:09.939Z,10.13
2018-03-17T15:51:37.114Z,14.50
2018-03-17T15:54:03.468Z,13.70
2018-03-17T15:56:38.732Z,11.60
2018-03-17T15:59:05.859Z,13.33
2018-03-17T16:01:40.862Z,8.70
2018-03-17T16:04:07.693Z,13.00
2018-03-17T16:06:34.223Z,12.60
2018-03-17T16:09:10.570Z,11.37
2018-03-17T16:11:37.025Z,13.33
2018-03-17T16:14:03.435Z,11.17
2018-03-17T16:16:30.610Z,11.53
2018-03-17T16:19:01.451Z,13.47
2018-03-17T16:21:28.785Z,11.20
2018-03-17T16:23:55.187Z,10.33
2018-03-17T16:26:21.558Z,14.80
2018-03-17T16:28:48.008Z,13.70
2018-03-17T16:31:18.630Z,12.53
2018-03-17T16:33:45.111Z,11.73
2018-03-17T16:36:11.617Z,14.10
2018-03-17T16:38:38.021Z,13.77
2018-03-17T16:41:05.156Z,13.80
2018-03-17T16:43:31.688Z,13.20
2018-03-17T16:45:58.394Z,14.70
2018-03-17T16:48:24.791Z,14.13
2018-03-17T16:50:51.906Z,12.47
2018-03-17T16:53:18.379Z,12.50
2018-03-17T16:55:45.065Z,13.60
2018-03-17T16:58:12.151Z,14.10
2018-03-17T17:00:39.551Z,12.87
2018-03-17T17:03:06.247Z,12.00
2018-03-17T17:05:32.583Z,12.27
2018-03-17T17:08:04.780Z,12.23
2018-03-17T17:10:32.727Z,17.93
2018-03-17T17:13:00.296Z,12.83
2018-03-17T17:15:26.901Z,13.93
2018-03-17T17:17:54.438Z,11.83
2018-03-17T17:20:22.715Z,13.30
2018-03-17T17:22:49.066Z,11.60
2018-03-17T17:25:15.521Z,12.40
2018-03-17T17:27:42.265Z,15.93
2018-03-17T17:30:10.022Z,12.33
2018-03-17T17:32:37.856Z,14.73
2018-03-17T17:35:05.003Z,14.50
2018-03-17T17:37:32.934Z,12.83
2018-03-17T17:39:59.670Z,12.90
2018-03-17T17:42:26.144Z,13.60
2018-03-17T17:44:52.488Z,15.60
2018-03-17T17:47:18.857Z,13.37
2018-03-17T17:49:45.602Z,12.70
2018-03-17T17:52:12.095Z,12.93
2018-03-17T17:54:38.522Z,12.43
2018-03-17T17:57:04.912Z,12.20
2018-03-17T17:59:31.280Z,12.63
2018-03-17T18:01:57.826Z,14.90
2018-03-17T18:04:24.385Z,13.87
2018-03-17T18:06:51.622Z,12.87
2018-03-17T18:09:18.084Z,10.50
2018-03-17T18:11:44.632Z,15.67
2018-03-17T18:14:11.628Z,12.90
2018-03-17T18:16:38.005Z,18.93
2018-03-17T18:19:04.402Z,14.57
2018-03-17T18:21:34.987Z,16.20
2018-03-17T18:24:01.493Z,14.17
2018-03-17T18:26:28.342Z,17.00
2018-03-17T18:28:54.691Z,15.60
2018-03-17T18:31:21.078Z,14.43
2018-03-17T18:33:47.431Z,14.07
2018-03-17T18:36:13.945Z,14.07
2018-03-17T18:38:40.718Z,18.37
2018-03-17T18:41:11.653Z,17.53
2018-03-17T18:43:38.798Z,14.40
2018-03-17T18:46:05.884Z,15.10
2018-03-17T18:48:33.489Z,14.30
2018-03-17T18:51:00.159Z,16.27
2018-03-17T18:53:26.483Z,17.47
2018-03-17T18:55:52.854Z,19.03
2018-03-17T18:58:19.244Z,15.37
2018-03-17T19:00:47.168Z,13.17
2018-03-17T19:03:13.463Z,12.83
2018-03-17T19:05:40.587Z,17.03
2018-03-17T19:08:07.003Z,16.47
2018-03-17T19:10:33.370Z,16.07
2018-03-17T19:13:00.541Z,14.10
2018-03-17T19:15:27.144Z,14.47
2018-03-17T19:17:56.838Z,14.73
2018-03-17T19:20:25.209Z,14.50
2018-03-17T19:23:08.940Z,11.97
2018-03-17T19:25:38.469Z,14.80
2018-03-17T19:28:05.123Z,16.07
2018-03-17T19:30:31.471Z,16.03
2018-03-17T19:32:58.089Z,12.10
2018-03-17T19:35:24.488Z,19.90
2018-03-17T19:37:50.874Z,17.77
2018-03-17T19:40:18.234Z,15.67
2018-03-17T19:42:44.604Z,13.73
2018-03-17T19:45:11.368Z,15.37
2018-03-17T19:47:50.753Z,15.10
2018-03-17T19:50:18.968Z,15.80
2018-03-17T19:52:46.153Z,15.00
2018-03-17T19:55:13.174Z,15.57
2018-03-17T19:57:39.756Z,14.63
2018-03-17T20:00:06.527Z,17.17
2018-03-17T20:02:32.961Z,18.40
2018-03-17T20:04:59.330Z,17.13
2018-03-17T20:07:25.699Z,14.87
2018-03-17T20:09:52.818Z,17.43
2018-03-17T20:12:20.041Z,17.37
2018-03-17T20:14:46.366Z,14.20
2018-03-17T20:17:14.130Z,13.83
2018-03-17T20:19:40.510Z,17.57
2018-03-17T20:22:06.879Z,15.03
2018-03-17T20:24:33.210Z,15.27
2018-03-17T20:27:01.909Z,16.37
2018-03-17T20:29:29.319Z,19.73
2018-03-17T20:31:55.711Z,14.90
2018-03-17T20:34:28.963Z,15.20
2018-03-17T20:36:55.324Z,17.57
2018-03-17T20:39:21.725Z,16.53
2018-03-17T20:41:48.058Z,15.57
2018-03-17T20:44:14.489Z,20.17
2018-03-17T20:46:40.805Z,15.00
2018-03-17T20:49:07.138Z,17.67
2018-03-17T20:51:34.607Z,17.83
2018-03-17T20:54:02.046Z,14.63
2018-03-17T20:56:39.612Z,17.73
2018-03-17T20:59:06.012Z,16.67
2018-03-17T21:01:32.366Z,17.80
2018-03-17T21:03:59.776Z,14.90
2018-03-17T21:06:26.229Z,15.70
2018-03-17T21:08:52.671Z,19.43
2018-03-17T21:11:20.082Z,16.10
2018-03-17T21:13:46.411Z,18.30
2018-03-17T21:16:12.801Z,19.87
2018-03-17T21:18:40.236Z,19.57
2018-03-17T21:21:06.635Z,20.37
2018-03-17T21:23:33.832Z,16.97
2018-03-17T21:26:00.980Z,19.27
2018-03-17T21:28:37.452Z,22.30
2018-03-17T21:31:04.670Z,19.33
2018-03-17T21:33:31.229Z,17.70
2018-03-17T21:35:58.486Z,16.73
2018-03-17T21:38:29.457Z,17.83
2018-03-17T21:40:56.770Z,19.67
2018-03-17T21:43:24.896Z,19.07
2018-03-17T21:45:51.280Z,17.93
2018-03-17T21:48:17.577Z,18.03
2018-03-17T21:50:44.045Z,19.07
2018-03-17T21:53:11.175Z,17.73
2018-03-17T21:55:39.235Z,18.87
2018-03-17T21:58:05.580Z,19.43
2018-03-17T22:00:31.948Z,15.63
2018-03-17T22:02:58.571Z,17.07
2018-03-17T22:05:24.910Z,18.30
2018-03-17T22:07:51.358Z,18.30
2018-03-17T22:10:18.413Z,16.80
2018-03-17T22:12:44.810Z,15.30
2018-03-17T22:15:11.935Z,18.83
2018-03-17T22:17:38.233Z,18.60
2018-03-17T22:20:25.022Z,21.70
2018-03-17T22:22:51.463Z,12.03
2018-03-17T22:25:17.771Z,21.17
2018-03-17T22:27:44.197Z,16.30
2018-03-17T22:30:13.436Z,16.33
2018-03-17T22:32:43.797Z,16.67
2018-03-17T22:35:12.498Z,19.90
2018-03-17T22:37:38.850Z,16.47
2018-03-17T22:40:05.227Z,16.50
2018-03-17T22:42:33.333Z,14.80
2018-03-17T22:44:59.621Z,16.03
2018-03-17T22:47:40.934Z,15.73
2018-03-17T22:50:07.944Z,18.23
2018-03-17T22:52:34.209Z,17.00
2018-03-17T22:55:00.465Z,19.20
2018-03-17T22:57:26.828Z,16.17
2018-03-17T22:59:53.876Z,15.20
2018-03-17T23:02:20.118Z,18.13
2018-03-17T23:04:47.122Z,15.90
2018-03-17T23:07:13.414Z,18.60
2018-03-17T23:09:39.747Z,20.13
2018-03-17T23:12:06.025Z,21.40
2018-03-17T23:14:46.019Z,20.93
2018-03-17T23:17:12.339Z,14.87
2018-03-17T23:19:38.615Z,18.47
2018-03-17T23:22:04.862Z,19.47
2018-03-17T23:24:31.120Z,18.60
2018-03-17T23:26:57.424Z,15.73
2018-03-17T23:29:23.724Z,18.30
2018-03-17T23:31:50.787Z,20.87
2018-03-17T23:34:17.029Z,18.77
2018-03-17T23:36:43.401Z,18.30
2018-03-17T23:39:16.930Z,20.90
2018-03-17T23:41:43.199Z,21.60
2018-03-17T23:44:09.539Z,19.43
2018-03-17T23:46:46.891Z,17.37
2018-03-17T23:49:13.247Z,17.97
2018-03-17T23:51:39.537Z,17.43
2018-03-17T23:54:05.862Z,16.93
2018-03-17T23:56:42.439Z,18.80
2018-03-17T23:59:08.735Z,18.07
